Gurdon, AR (71743)

9:51 AM CDT on September 17, 2014 (GMT -0500)
Florence Mem AP, Arkadelphia, | Change Station
CLOSE
Current Station
Airport
Location: Florence Mem AP, Arkadelphia,,
Elevation: 184 ft
Nearby Weather Stations

Elev 184 ft 34.10 °N, 93.07 °W | Updated 44 minutes ago

Overcast
Overcast
68 °F
Feels Like 68 °F
N
4
Wind Variable Wind from Variable

Today
High -- | Low -- °F
--% Chance of Precip.
Yesterday
High -- | Low -- °F
Precip. -- in
6:57 AM 7:16 PM
Waning Crescent, 35% visible
Pressure 30.01 in
Visibility 8.0 miles
Clouds Overcast 800 ft
Dew Point 64 °F
Humidity 88%
Rainfall 0.00 in
Snow Depth Not available.
UV 1 out of 12
Pollen 10.30 out of 12
Air Quality Not available.
Flu Activity Not available.
SPECI KADF 171407Z AUTO VRB03KT 8SM OVC008 20/18 A3001 RMK AO2 CIG 006V010 $

More Conditions Fewer Conditions

Pressure 30.01 in
Visibility 8.0 miles
Clouds Overcast 800 ft
Dew Point 64 °F
Humidity 88%
Rainfall 0.00 in
Snow Depth Not available.
UV 1 out of 12
Pollen 10.30 out of 12
Air Quality Not available.
Flu Activity Not available.
SPECI KADF 171407Z AUTO VRB03KT 8SM OVC008 20/18 A3001 RMK AO2 CIG 006V010 $

More Conditions Fewer Conditions

10-Day Weather Forecast

Almanac

Astronomy

Sep. 17, 2014 Rise Set
Actual Time 6:57 AM CDT 7:16 PM CDT
Civil Twilight 6:32 AM CDT 7:41 PM CDT
Nautical Twilight 6:02 AM CDT 8:10 PM CDT
Astronomical Twilight 5:33 AM CDT 8:40 PM CDT
Moon 1:09 AM CDT 3:15 PM CDT
Length of Visible Light 13h 09m
Length of Day
12h 19m
Tomorrow will be 2m 5s shorter.
Waning Crescent, 35% of the Moon is Illuminated
Today
Waning Crescent
Sep 24
New
Oct 1
First Quarter
Oct 8
Full
Oct 15
Last Quarter

Today's Extremes

State Highs State Lows

Community

WunderPhotos

Upload Photos

1,754,060 photos uploaded!

WunderBlogs® & News

By Dr. Jeff Masters
Director of Meteorology, Weather Underground
By Kari Strenfel
Meteorologist, Weather Underground
By Christopher C. Burt
Weather Historian, Weather Underground
September 17, 2014
September 17, 2014
September 17, 2014

Nearby

Snow Depth

Station Depth Elevation
No new snow has been reported.

Earthquake Activity

City Distance Mag. Time & Date
No recent earthquake activity has been reported nearby.
Minimum magnitude displayed is 2.5.

Coastal Water Temperatures

Place Temperature
No Stations Reporting

Nearby Weather Stations